sensor_id;sensor_type;location;lat;lon;timestamp;P1;durP1;ratioP1;P2;durP2;ratioP2
19384;SDS011;9828;54.122;17.974;2023-04-06T00:03:08;21.63;;;9.70;;
19384;SDS011;9828;54.122;17.974;2023-04-06T00:08:29;18.27;;;9.20;;
19384;SDS011;9828;54.122;17.974;2023-04-06T00:13:50;17.47;;;9.27;;
19384;SDS011;9828;54.122;17.974;2023-04-06T00:19:12;18.93;;;9.83;;
19384;SDS011;9828;54.122;17.974;2023-04-06T00:24:34;18.67;;;10.27;;
19384;SDS011;9828;54.122;17.974;2023-04-06T00:29:56;20.37;;;9.80;;
19384;SDS011;9828;54.122;17.974;2023-04-06T00:35:17;14.97;;;8.73;;
19384;SDS011;9828;54.122;17.974;2023-04-06T00:40:39;21.53;;;11.13;;
19384;SDS011;9828;54.122;17.974;2023-04-06T00:46:00;19.73;;;10.47;;
19384;SDS011;9828;54.122;17.974;2023-04-06T00:51:22;25.17;;;12.00;;
19384;SDS011;9828;54.122;17.974;2023-04-06T00:56:43;23.10;;;11.97;;
19384;SDS011;9828;54.122;17.974;2023-04-06T01:02:05;27.43;;;13.67;;
19384;SDS011;9828;54.122;17.974;2023-04-06T01:07:32;20.63;;;11.73;;
19384;SDS011;9828;54.122;17.974;2023-04-06T01:13:00;22.10;;;11.10;;
19384;SDS011;9828;54.122;17.974;2023-04-06T01:18:45;28.67;;;13.17;;
19384;SDS011;9828;54.122;17.974;2023-04-06T01:24:11;27.17;;;13.67;;
19384;SDS011;9828;54.122;17.974;2023-04-06T01:29:56;32.57;;;15.37;;
19384;SDS011;9828;54.122;17.974;2023-04-06T01:35:47;28.40;;;14.47;;
19384;SDS011;9828;54.122;17.974;2023-04-06T01:41:11;28.13;;;14.40;;
19384;SDS011;9828;54.122;17.974;2023-04-06T01:46:45;23.50;;;12.73;;
19384;SDS011;9828;54.122;17.974;2023-04-06T01:52:11;27.97;;;13.10;;
19384;SDS011;9828;54.122;17.974;2023-04-06T01:57:37;28.40;;;13.83;;
19384;SDS011;9828;54.122;17.974;2023-04-06T02:03:07;27.57;;;13.53;;
19384;SDS011;9828;54.122;17.974;2023-04-06T02:08:29;28.47;;;14.17;;
19384;SDS011;9828;54.122;17.974;2023-04-06T02:13:50;24.83;;;12.60;;
19384;SDS011;9828;54.122;17.974;2023-04-06T02:19:12;28.37;;;14.73;;
19384;SDS011;9828;54.122;17.974;2023-04-06T02:24:33;27.43;;;15.20;;
19384;SDS011;9828;54.122;17.974;2023-04-06T02:29:54;43.80;;;19.47;;
19384;SDS011;9828;54.122;17.974;2023-04-06T02:35:16;32.67;;;18.43;;
19384;SDS011;9828;54.122;17.974;2023-04-06T02:40:40;30.13;;;16.70;;
19384;SDS011;9828;54.122;17.974;2023-04-06T02:46:12;31.17;;;17.67;;
19384;SDS011;9828;54.122;17.974;2023-04-06T02:51:33;31.83;;;16.77;;
19384;SDS011;9828;54.122;17.974;2023-04-06T02:57:13;33.07;;;16.13;;
19384;SDS011;9828;54.122;17.974;2023-04-06T03:02:38;37.40;;;18.90;;
19384;SDS011;9828;54.122;17.974;2023-04-06T03:08:02;31.67;;;16.30;;
19384;SDS011;9828;54.122;17.974;2023-04-06T03:13:44;33.20;;;17.37;;
19384;SDS011;9828;54.122;17.974;2023-04-06T03:19:05;39.10;;;19.77;;
19384;SDS011;9828;54.122;17.974;2023-04-06T03:24:28;52.77;;;24.83;;
19384;SDS011;9828;54.122;17.974;2023-04-06T03:29:50;54.10;;;28.10;;
19384;SDS011;9828;54.122;17.974;2023-04-06T03:35:19;56.97;;;29.60;;
19384;SDS011;9828;54.122;17.974;2023-04-06T03:40:40;50.63;;;27.80;;
19384;SDS011;9828;54.122;17.974;2023-04-06T03:46:01;50.40;;;27.73;;
19384;SDS011;9828;54.122;17.974;2023-04-06T03:51:22;49.13;;;27.27;;
19384;SDS011;9828;54.122;17.974;2023-04-06T03:56:43;39.17;;;25.30;;
19384;SDS011;9828;54.122;17.974;2023-04-06T04:02:05;45.43;;;25.83;;
19384;SDS011;9828;54.122;17.974;2023-04-06T04:07:26;46.77;;;27.03;;
19384;SDS011;9828;54.122;17.974;2023-04-06T04:12:48;51.00;;;28.00;;
19384;SDS011;9828;54.122;17.974;2023-04-06T04:18:09;40.77;;;22.73;;
19384;SDS011;9828;54.122;17.974;2023-04-06T04:23:32;43.80;;;20.80;;
19384;SDS011;9828;54.122;17.974;2023-04-06T04:28:55;41.00;;;21.13;;
19384;SDS011;9828;54.122;17.974;2023-04-06T04:34:16;48.07;;;22.67;;
19384;SDS011;9828;54.122;17.974;2023-04-06T04:39:40;48.00;;;20.10;;
19384;SDS011;9828;54.122;17.974;2023-04-06T04:45:01;33.87;;;17.47;;
19384;SDS011;9828;54.122;17.974;2023-04-06T04:50:30;37.23;;;18.23;;
19384;SDS011;9828;54.122;17.974;2023-04-06T04:55:52;30.77;;;17.17;;
19384;SDS011;9828;54.122;17.974;2023-04-06T05:01:13;31.60;;;16.67;;
19384;SDS011;9828;54.122;17.974;2023-04-06T05:06:37;29.87;;;17.23;;
19384;SDS011;9828;54.122;17.974;2023-04-06T05:11:59;31.00;;;18.23;;
19384;SDS011;9828;54.122;17.974;2023-04-06T05:17:24;34.00;;;20.07;;
19384;SDS011;9828;54.122;17.974;2023-04-06T05:22:46;27.90;;;16.60;;
19384;SDS011;9828;54.122;17.974;2023-04-06T05:28:08;29.97;;;17.93;;
19384;SDS011;9828;54.122;17.974;2023-04-06T05:33:31;36.10;;;19.63;;
19384;SDS011;9828;54.122;17.974;2023-04-06T05:39:00;47.10;;;24.67;;
19384;SDS011;9828;54.122;17.974;2023-04-06T05:44:50;52.07;;;26.03;;
19384;SDS011;9828;54.122;17.974;2023-04-06T05:50:15;54.77;;;25.57;;
19384;SDS011;9828;54.122;17.974;2023-04-06T05:55:38;43.47;;;22.67;;
19384;SDS011;9828;54.122;17.974;2023-04-06T06:01:04;41.00;;;22.37;;
19384;SDS011;9828;54.122;17.974;2023-04-06T06:06:33;47.27;;;21.50;;
19384;SDS011;9828;54.122;17.974;2023-04-06T06:12:06;40.50;;;21.17;;
19384;SDS011;9828;54.122;17.974;2023-04-06T06:17:28;37.40;;;19.87;;
19384;SDS011;9828;54.122;17.974;2023-04-06T06:22:50;57.90;;;26.30;;
19384;SDS011;9828;54.122;17.974;2023-04-06T06:28:14;60.80;;;25.13;;
19384;SDS011;9828;54.122;17.974;2023-04-06T06:33:35;68.83;;;32.20;;
19384;SDS011;9828;54.122;17.974;2023-04-06T06:38:57;47.73;;;25.87;;
19384;SDS011;9828;54.122;17.974;2023-04-06T06:44:18;47.27;;;25.40;;
19384;SDS011;9828;54.122;17.974;2023-04-06T06:49:40;26.27;;;13.60;;
19384;SDS011;9828;54.122;17.974;2023-04-06T06:55:02;28.23;;;12.90;;
19384;SDS011;9828;54.122;17.974;2023-04-06T07:00:23;27.70;;;13.33;;
19384;SDS011;9828;54.122;17.974;2023-04-06T07:05:46;18.37;;;10.73;;
19384;SDS011;9828;54.122;17.974;2023-04-06T07:11:15;20.87;;;11.90;;
19384;SDS011;9828;54.122;17.974;2023-04-06T07:16:36;32.07;;;12.37;;
19384;SDS011;9828;54.122;17.974;2023-04-06T07:21:58;21.67;;;9.77;;
19384;SDS011;9828;54.122;17.974;2023-04-06T07:27:19;20.57;;;8.90;;
19384;SDS011;9828;54.122;17.974;2023-04-06T07:32:40;16.53;;;7.93;;
19384;SDS011;9828;54.122;17.974;2023-04-06T07:38:02;24.57;;;9.10;;
19384;SDS011;9828;54.122;17.974;2023-04-06T07:43:25;16.17;;;7.20;;
19384;SDS011;9828;54.122;17.974;2023-04-06T07:48:46;6.57;;;4.13;;
19384;SDS011;9828;54.122;17.974;2023-04-06T07:54:07;13.43;;;6.47;;
19384;SDS011;9828;54.122;17.974;2023-04-06T07:59:28;14.55;;;5.47;;
19384;SDS011;9828;54.122;17.974;2023-04-06T08:04:50;10.23;;;6.55;;
19384;SDS011;9828;54.122;17.974;2023-04-06T08:10:11;10.87;;;5.57;;
19384;SDS011;9828;54.122;17.974;2023-04-06T08:15:33;20.27;;;8.33;;
19384;SDS011;9828;54.122;17.974;2023-04-06T08:20:54;14.50;;;8.47;;
19384;SDS011;9828;54.122;17.974;2023-04-06T08:26:15;13.10;;;7.73;;
19384;SDS011;9828;54.122;17.974;2023-04-06T08:31:37;12.73;;;5.67;;
19384;SDS011;9828;54.122;17.974;2023-04-06T08:36:58;7.23;;;4.30;;
19384;SDS011;9828;54.122;17.974;2023-04-06T08:42:20;6.70;;;4.88;;
19384;SDS011;9828;54.122;17.974;2023-04-06T08:47:45;15.10;;;7.87;;
19384;SDS011;9828;54.122;17.974;2023-04-06T08:53:14;16.33;;;9.88;;
19384;SDS011;9828;54.122;17.974;2023-04-06T08:58:37;10.18;;;5.50;;
19384;SDS011;9828;54.122;17.974;2023-04-06T09:04:00;7.90;;;4.27;;
19384;SDS011;9828;54.122;17.974;2023-04-06T09:09:22;6.97;;;4.10;;
19384;SDS011;9828;54.122;17.974;2023-04-06T09:14:45;6.37;;;4.23;;
19384;SDS011;9828;54.122;17.974;2023-04-06T09:20:07;9.43;;;5.23;;
19384;SDS011;9828;54.122;17.974;2023-04-06T09:25:29;6.87;;;4.00;;
19384;SDS011;9828;54.122;17.974;2023-04-06T09:30:52;5.60;;;4.00;;
19384;SDS011;9828;54.122;17.974;2023-04-06T09:36:13;9.50;;;5.10;;
19384;SDS011;9828;54.122;17.974;2023-04-06T09:41:36;8.33;;;4.60;;
19384;SDS011;9828;54.122;17.974;2023-04-06T09:46:57;12.33;;;4.83;;
19384;SDS011;9828;54.122;17.974;2023-04-06T09:52:19;6.73;;;4.43;;
19384;SDS011;9828;54.122;17.974;2023-04-06T10:09:07;15.60;;;6.87;;
19384;SDS011;9828;54.122;17.974;2023-04-06T10:14:29;8.03;;;4.93;;
19384;SDS011;9828;54.122;17.974;2023-04-06T10:20:06;11.40;;;4.40;;
19384;SDS011;9828;54.122;17.974;2023-04-06T10:25:36;5.43;;;4.10;;
19384;SDS011;9828;54.122;17.974;2023-04-06T10:30:58;15.13;;;5.60;;
19384;SDS011;9828;54.122;17.974;2023-04-06T10:36:22;10.30;;;4.10;;
19384;SDS011;9828;54.122;17.974;2023-04-06T10:41:48;8.90;;;4.37;;
19384;SDS011;9828;54.122;17.974;2023-04-06T10:47:15;12.63;;;5.70;;
19384;SDS011;9828;54.122;17.974;2023-04-06T10:52:40;9.90;;;5.07;;
19384;SDS011;9828;54.122;17.974;2023-04-06T10:58:01;13.40;;;6.83;;
19384;SDS011;9828;54.122;17.974;2023-04-06T11:03:26;6.77;;;4.50;;
19384;SDS011;9828;54.122;17.974;2023-04-06T11:08:48;9.33;;;4.70;;
19384;SDS011;9828;54.122;17.974;2023-04-06T11:14:10;7.27;;;4.43;;
19384;SDS011;9828;54.122;17.974;2023-04-06T11:19:31;11.40;;;5.07;;
19384;SDS011;9828;54.122;17.974;2023-04-06T11:24:53;9.10;;;4.80;;
19384;SDS011;9828;54.122;17.974;2023-04-06T11:30:26;10.40;;;6.17;;
19384;SDS011;9828;54.122;17.974;2023-04-06T11:35:48;10.57;;;4.80;;
19384;SDS011;9828;54.122;17.974;2023-04-06T11:41:09;5.63;;;3.90;;
19384;SDS011;9828;54.122;17.974;2023-04-06T11:46:30;8.37;;;4.40;;
19384;SDS011;9828;54.122;17.974;2023-04-06T11:51:52;5.87;;;3.90;;
19384;SDS011;9828;54.122;17.974;2023-04-06T11:57:13;8.20;;;5.13;;
19384;SDS011;9828;54.122;17.974;2023-04-06T12:02:38;11.80;;;6.20;;
19384;SDS011;9828;54.122;17.974;2023-04-06T12:08:00;8.10;;;5.27;;
19384;SDS011;9828;54.122;17.974;2023-04-06T12:13:21;11.68;;;4.65;;
19384;SDS011;9828;54.122;17.974;2023-04-06T12:18:42;5.87;;;3.93;;
19384;SDS011;9828;54.122;17.974;2023-04-06T12:24:04;8.97;;;4.90;;
19384;SDS011;9828;54.122;17.974;2023-04-06T12:29:26;8.87;;;4.83;;
19384;SDS011;9828;54.122;17.974;2023-04-06T12:34:47;8.80;;;4.73;;
19384;SDS011;9828;54.122;17.974;2023-04-06T12:40:08;12.37;;;5.27;;
19384;SDS011;9828;54.122;17.974;2023-04-06T12:45:31;7.13;;;4.33;;
19384;SDS011;9828;54.122;17.974;2023-04-06T12:50:59;13.43;;;4.93;;
19384;SDS011;9828;54.122;17.974;2023-04-06T12:56:22;6.97;;;4.13;;
19384;SDS011;9828;54.122;17.974;2023-04-06T13:01:43;7.93;;;3.80;;
19384;SDS011;9828;54.122;17.974;2023-04-06T13:07:05;8.20;;;4.00;;
19384;SDS011;9828;54.122;17.974;2023-04-06T13:12:32;6.73;;;2.97;;
19384;SDS011;9828;54.122;17.974;2023-04-06T13:18:03;11.10;;;4.10;;
19384;SDS011;9828;54.122;17.974;2023-04-06T13:23:24;6.23;;;3.47;;
19384;SDS011;9828;54.122;17.974;2023-04-06T13:28:46;7.90;;;4.53;;
19384;SDS011;9828;54.122;17.974;2023-04-06T13:34:08;9.50;;;6.10;;
19384;SDS011;9828;54.122;17.974;2023-04-06T13:39:29;6.53;;;3.37;;
19384;SDS011;9828;54.122;17.974;2023-04-06T13:44:51;37.73;;;16.23;;
19384;SDS011;9828;54.122;17.974;2023-04-06T13:50:13;19.70;;;9.33;;
19384;SDS011;9828;54.122;17.974;2023-04-06T13:55:35;21.63;;;9.60;;
19384;SDS011;9828;54.122;17.974;2023-04-06T14:01:08;8.40;;;4.90;;
19384;SDS011;9828;54.122;17.974;2023-04-06T14:06:30;12.80;;;6.43;;
19384;SDS011;9828;54.122;17.974;2023-04-06T14:11:51;13.27;;;7.00;;
19384;SDS011;9828;54.122;17.974;2023-04-06T14:17:13;6.73;;;3.27;;
19384;SDS011;9828;54.122;17.974;2023-04-06T14:22:35;7.33;;;3.73;;
19384;SDS011;9828;54.122;17.974;2023-04-06T14:27:57;13.73;;;7.17;;
19384;SDS011;9828;54.122;17.974;2023-04-06T14:33:18;10.20;;;4.37;;
19384;SDS011;9828;54.122;17.974;2023-04-06T14:38:39;7.17;;;3.40;;
19384;SDS011;9828;54.122;17.974;2023-04-06T14:44:01;4.63;;;3.03;;
19384;SDS011;9828;54.122;17.974;2023-04-06T14:49:23;10.93;;;5.00;;
19384;SDS011;9828;54.122;17.974;2023-04-06T14:54:44;5.67;;;2.83;;
19384;SDS011;9828;54.122;17.974;2023-04-06T15:00:06;4.90;;;3.40;;
19384;SDS011;9828;54.122;17.974;2023-04-06T15:05:30;12.93;;;5.63;;
19384;SDS011;9828;54.122;17.974;2023-04-06T15:10:52;9.13;;;3.80;;
19384;SDS011;9828;54.122;17.974;2023-04-06T15:16:15;27.77;;;11.90;;
19384;SDS011;9828;54.122;17.974;2023-04-06T15:21:36;23.83;;;10.60;;
19384;SDS011;9828;54.122;17.974;2023-04-06T15:26:58;10.80;;;4.13;;
19384;SDS011;9828;54.122;17.974;2023-04-06T15:32:19;6.90;;;3.77;;
19384;SDS011;9828;54.122;17.974;2023-04-06T15:37:41;20.87;;;7.40;;
19384;SDS011;9828;54.122;17.974;2023-04-06T15:43:02;12.97;;;5.27;;
19384;SDS011;9828;54.122;17.974;2023-04-06T15:48:23;17.17;;;6.33;;
19384;SDS011;9828;54.122;17.974;2023-04-06T15:53:45;18.27;;;6.30;;
19384;SDS011;9828;54.122;17.974;2023-04-06T15:59:06;15.90;;;5.33;;
19384;SDS011;9828;54.122;17.974;2023-04-06T16:04:28;12.47;;;4.83;;
19384;SDS011;9828;54.122;17.974;2023-04-06T16:10:00;9.17;;;3.87;;
19384;SDS011;9828;54.122;17.974;2023-04-06T16:15:23;5.47;;;3.07;;
19384;SDS011;9828;54.122;17.974;2023-04-06T16:20:44;12.90;;;4.43;;
19384;SDS011;9828;54.122;17.974;2023-04-06T16:26:12;14.00;;;5.97;;
19384;SDS011;9828;54.122;17.974;2023-04-06T16:31:34;11.60;;;6.10;;
19384;SDS011;9828;54.122;17.974;2023-04-06T16:36:56;9.27;;;4.67;;
19384;SDS011;9828;54.122;17.974;2023-04-06T16:42:17;7.87;;;4.27;;
19384;SDS011;9828;54.122;17.974;2023-04-06T16:47:40;15.87;;;6.60;;
19384;SDS011;9828;54.122;17.974;2023-04-06T16:53:01;9.83;;;4.87;;
19384;SDS011;9828;54.122;17.974;2023-04-06T16:58:22;7.57;;;4.23;;
19384;SDS011;9828;54.122;17.974;2023-04-06T17:03:43;10.23;;;5.50;;
19384;SDS011;9828;54.122;17.974;2023-04-06T17:09:06;10.80;;;4.27;;
19384;SDS011;9828;54.122;17.974;2023-04-06T17:14:27;11.07;;;5.17;;
19384;SDS011;9828;54.122;17.974;2023-04-06T17:19:48;11.53;;;5.67;;
19384;SDS011;9828;54.122;17.974;2023-04-06T17:25:10;9.23;;;5.37;;
19384;SDS011;9828;54.122;17.974;2023-04-06T17:30:31;15.23;;;7.20;;
19384;SDS011;9828;54.122;17.974;2023-04-06T17:35:53;7.93;;;4.97;;
19384;SDS011;9828;54.122;17.974;2023-04-06T17:41:15;13.80;;;8.23;;
19384;SDS011;9828;54.122;17.974;2023-04-06T17:46:36;13.27;;;5.50;;
19384;SDS011;9828;54.122;17.974;2023-04-06T17:51:57;31.33;;;14.27;;
19384;SDS011;9828;54.122;17.974;2023-04-06T17:57:18;27.00;;;15.17;;
19384;SDS011;9828;54.122;17.974;2023-04-06T18:02:40;11.53;;;6.10;;
19384;SDS011;9828;54.122;17.974;2023-04-06T18:08:02;9.90;;;4.60;;
19384;SDS011;9828;54.122;17.974;2023-04-06T18:13:22;6.70;;;3.97;;
19384;SDS011;9828;54.122;17.974;2023-04-06T18:18:44;10.67;;;4.70;;
19384;SDS011;9828;54.122;17.974;2023-04-06T18:24:05;8.03;;;4.10;;
19384;SDS011;9828;54.122;17.974;2023-04-06T18:29:27;13.93;;;4.70;;
19384;SDS011;9828;54.122;17.974;2023-04-06T18:34:48;9.57;;;3.73;;
19384;SDS011;9828;54.122;17.974;2023-04-06T18:40:28;5.80;;;3.73;;
19384;SDS011;9828;54.122;17.974;2023-04-06T18:45:51;6.77;;;3.60;;
19384;SDS011;9828;54.122;17.974;2023-04-06T18:51:11;10.43;;;4.60;;
19384;SDS011;9828;54.122;17.974;2023-04-06T18:56:33;9.93;;;4.97;;
19384;SDS011;9828;54.122;17.974;2023-04-06T19:01:54;8.67;;;5.13;;
19384;SDS011;9828;54.122;17.974;2023-04-06T19:07:15;7.50;;;4.23;;
19384;SDS011;9828;54.122;17.974;2023-04-06T19:12:36;10.97;;;5.50;;
19384;SDS011;9828;54.122;17.974;2023-04-06T19:17:58;9.57;;;5.40;;
19384;SDS011;9828;54.122;17.974;2023-04-06T19:23:20;10.10;;;5.37;;
19384;SDS011;9828;54.122;17.974;2023-04-06T19:28:41;7.63;;;4.47;;
19384;SDS011;9828;54.122;17.974;2023-04-06T19:34:03;8.70;;;4.67;;
19384;SDS011;9828;54.122;17.974;2023-04-06T19:39:24;9.37;;;5.37;;
19384;SDS011;9828;54.122;17.974;2023-04-06T19:44:46;9.63;;;5.30;;
19384;SDS011;9828;54.122;17.974;2023-04-06T19:50:08;9.37;;;4.60;;
19384;SDS011;9828;54.122;17.974;2023-04-06T19:55:30;8.63;;;5.03;;
19384;SDS011;9828;54.122;17.974;2023-04-06T20:00:52;8.70;;;5.33;;
19384;SDS011;9828;54.122;17.974;2023-04-06T20:06:12;8.20;;;5.07;;
19384;SDS011;9828;54.122;17.974;2023-04-06T20:11:34;11.37;;;6.07;;
19384;SDS011;9828;54.122;17.974;2023-04-06T20:16:55;11.83;;;6.03;;
19384;SDS011;9828;54.122;17.974;2023-04-06T20:22:17;9.23;;;5.50;;
19384;SDS011;9828;54.122;17.974;2023-04-06T20:27:38;10.00;;;5.77;;
19384;SDS011;9828;54.122;17.974;2023-04-06T20:32:59;12.57;;;6.13;;
19384;SDS011;9828;54.122;17.974;2023-04-06T20:38:20;12.33;;;6.97;;
19384;SDS011;9828;54.122;17.974;2023-04-06T20:43:48;13.33;;;7.00;;
19384;SDS011;9828;54.122;17.974;2023-04-06T20:49:09;11.40;;;6.87;;
19384;SDS011;9828;54.122;17.974;2023-04-06T20:54:30;11.77;;;6.03;;
19384;SDS011;9828;54.122;17.974;2023-04-06T20:59:51;9.63;;;5.67;;
19384;SDS011;9828;54.122;17.974;2023-04-06T21:05:12;9.07;;;4.83;;
19384;SDS011;9828;54.122;17.974;2023-04-06T21:10:34;10.90;;;5.33;;
19384;SDS011;9828;54.122;17.974;2023-04-06T21:15:55;8.13;;;5.10;;
19384;SDS011;9828;54.122;17.974;2023-04-06T21:21:16;9.33;;;5.13;;
19384;SDS011;9828;54.122;17.974;2023-04-06T21:26:37;6.97;;;4.50;;
19384;SDS011;9828;54.122;17.974;2023-04-06T21:31:58;9.17;;;5.23;;
19384;SDS011;9828;54.122;17.974;2023-04-06T21:37:19;6.30;;;4.40;;
19384;SDS011;9828;54.122;17.974;2023-04-06T21:42:41;9.57;;;4.43;;
19384;SDS011;9828;54.122;17.974;2023-04-06T21:48:02;9.20;;;4.60;;
19384;SDS011;9828;54.122;17.974;2023-04-06T21:53:23;10.77;;;5.20;;
19384;SDS011;9828;54.122;17.974;2023-04-06T21:58:44;10.53;;;4.83;;
19384;SDS011;9828;54.122;17.974;2023-04-06T22:04:06;9.90;;;5.33;;
19384;SDS011;9828;54.122;17.974;2023-04-06T22:09:27;8.30;;;5.50;;
19384;SDS011;9828;54.122;17.974;2023-04-06T22:14:48;9.63;;;5.03;;
19384;SDS011;9828;54.122;17.974;2023-04-06T22:20:09;7.50;;;5.00;;
19384;SDS011;9828;54.122;17.974;2023-04-06T22:25:30;9.77;;;5.33;;
19384;SDS011;9828;54.122;17.974;2023-04-06T22:30:52;8.57;;;5.10;;
19384;SDS011;9828;54.122;17.974;2023-04-06T22:36:13;9.13;;;5.10;;
19384;SDS011;9828;54.122;17.974;2023-04-06T22:41:34;9.63;;;5.63;;
19384;SDS011;9828;54.122;17.974;2023-04-06T22:46:55;9.97;;;6.30;;
19384;SDS011;9828;54.122;17.974;2023-04-06T22:52:17;12.07;;;5.87;;
19384;SDS011;9828;54.122;17.974;2023-04-06T22:57:38;9.50;;;5.60;;
19384;SDS011;9828;54.122;17.974;2023-04-06T23:02:59;9.13;;;6.00;;
19384;SDS011;9828;54.122;17.974;2023-04-06T23:08:20;9.63;;;6.03;;
19384;SDS011;9828;54.122;17.974;2023-04-06T23:13:41;11.27;;;5.67;;
19384;SDS011;9828;54.122;17.974;2023-04-06T23:19:02;10.57;;;6.03;;
19384;SDS011;9828;54.122;17.974;2023-04-06T23:24:24;7.63;;;5.23;;
19384;SDS011;9828;54.122;17.974;2023-04-06T23:29:46;11.60;;;6.33;;
19384;SDS011;9828;54.122;17.974;2023-04-06T23:35:07;9.70;;;6.50;;
19384;SDS011;9828;54.122;17.974;2023-04-06T23:40:29;13.30;;;6.37;;
19384;SDS011;9828;54.122;17.974;2023-04-06T23:45:50;8.20;;;6.10;;
19384;SDS011;9828;54.122;17.974;2023-04-06T23:51:11;9.93;;;6.50;;
19384;SDS011;9828;54.122;17.974;2023-04-06T23:56:32;14.67;;;6.90;;
